createdAt,value
2019-03-23T00:00:03.535Z,12.72
2019-03-23T00:01:02.802Z,13.25
2019-03-23T00:02:02.507Z,13.82
2019-03-23T00:03:03.796Z,12.45
2019-03-23T00:04:02.798Z,12.45
2019-03-23T00:05:03.702Z,12.84
2019-03-23T00:06:03.658Z,11.61
2019-03-23T00:07:03.117Z,13.52
2019-03-23T00:08:02.153Z,13.8
2019-03-23T00:09:02.926Z,13.81
2019-03-23T00:10:03.012Z,14.01
2019-03-23T00:11:02.989Z,14.69
2019-03-23T00:12:03.114Z,15.81
2019-03-23T00:13:03.032Z,15.88
2019-03-23T00:14:02.939Z,14.81
2019-03-23T00:15:02.557Z,14.82
2019-03-23T00:16:03.111Z,15.36
2019-03-23T00:17:02.712Z,16.66
2019-03-23T00:18:03.090Z,16.66
2019-03-23T00:19:02.973Z,13.02
2019-03-23T00:20:03.266Z,13.02
2019-03-23T00:21:03.607Z,13.57
2019-03-23T00:22:03.004Z,13.57
2019-03-23T00:23:02.909Z,12.48
2019-03-23T00:24:03.197Z,12.05
2019-03-23T00:25:03.534Z,12.22
2019-03-23T00:26:03.081Z,13.55
2019-03-23T00:27:02.803Z,13.73
2019-03-23T00:28:03.387Z,13.31
2019-03-23T00:29:03.579Z,13.01
2019-03-23T00:30:02.930Z,13.01
2019-03-23T00:31:03.322Z,13.41
2019-03-23T00:32:02.731Z,13.26
2019-03-23T00:33:03.608Z,13.26
2019-03-23T00:34:03.172Z,11.91
2019-03-23T00:35:03.736Z,12.15
2019-03-23T00:36:03.214Z,10.59
2019-03-23T00:37:03.221Z,12.29
2019-03-23T00:38:03.261Z,12.05
2019-03-23T00:39:03.299Z,11.52
2019-03-23T00:40:03.105Z,12.18
2019-03-23T00:41:03.106Z,12.52
2019-03-23T00:42:03.187Z,11.9
2019-03-23T00:43:03.590Z,11.25
2019-03-23T00:44:03.539Z,11.95
2019-03-23T00:45:03.718Z,13.28
2019-03-23T00:46:03.055Z,13.65
2019-03-23T00:47:03.206Z,12
2019-03-23T00:48:03.031Z,13.38
2019-03-23T00:49:02.904Z,13.38
2019-03-23T00:50:03.686Z,13.53
2019-03-23T00:51:03.532Z,12.74
2019-03-23T00:52:03.315Z,13.37
2019-03-23T00:53:03.332Z,13.61
2019-03-23T00:54:03.407Z,13.44
2019-03-23T00:55:03.172Z,13.78
2019-03-23T00:56:02.964Z,14.24
2019-03-23T00:57:03.259Z,14.01
2019-03-23T00:58:03.047Z,14.01
2019-03-23T00:59:02.992Z,13.59
2019-03-23T01:00:02.717Z,14.87
2019-03-23T01:01:02.805Z,14.07
2019-03-23T01:02:02.980Z,12.71
2019-03-23T01:03:03.188Z,12.71
2019-03-23T01:04:02.890Z,15.07
2019-03-23T01:05:02.965Z,13.81
2019-03-23T01:06:02.986Z,14.59
2019-03-23T01:07:02.870Z,13.55
2019-03-23T01:08:03.040Z,13.55
2019-03-23T01:09:02.602Z,14.2
2019-03-23T01:10:03.086Z,14.35
2019-03-23T01:11:02.957Z,14.35
2019-03-23T01:12:02.886Z,13.58
2019-03-23T01:13:03.692Z,13.58
2019-03-23T01:14:02.777Z,13.26
2019-03-23T01:15:02.962Z,13.13
2019-03-23T01:16:03.012Z,14.34
2019-03-23T01:17:03.431Z,13.57
2019-03-23T01:18:03.266Z,13.57
2019-03-23T01:19:02.855Z,12.29
2019-03-23T01:20:03.860Z,13.04
2019-03-23T01:21:03.022Z,11.22
2019-03-23T01:22:03.519Z,11.22
2019-03-23T01:23:02.933Z,13.81
2019-03-23T01:24:03.554Z,13.23
2019-03-23T01:25:02.889Z,12.2
2019-03-23T01:26:03.406Z,12.38
2019-03-23T01:27:03.616Z,11.76
2019-03-23T01:28:01.832Z,13.89
2019-03-23T01:29:03.750Z,13.09
2019-03-23T01:30:03.631Z,12.82
2019-03-23T01:31:02.740Z,12.82
2019-03-23T01:32:03.211Z,13.74
2019-03-23T01:33:03.351Z,12.3
2019-03-23T01:34:02.941Z,13.92
2019-03-23T01:35:03.777Z,12.92
2019-03-23T01:36:03.473Z,13.49
2019-03-23T01:37:03.673Z,13.49
2019-03-23T01:38:03.460Z,14.12
2019-03-23T01:39:03.068Z,12.81
2019-03-23T01:40:02.568Z,12.79
2019-03-23T01:41:03.371Z,13.07
2019-03-23T01:42:03.633Z,13.66
2019-03-23T01:43:02.931Z,13.66
2019-03-23T01:44:03.258Z,12.7
2019-03-23T01:45:03.003Z,12.71
2019-03-23T01:46:03.606Z,14.81
2019-03-23T01:47:03.478Z,14.81
2019-03-23T01:48:03.286Z,16.76
2019-03-23T01:49:03.415Z,16.76
2019-03-23T01:50:03.682Z,14.6
2019-03-23T01:51:03.464Z,14.6
2019-03-23T01:52:03.510Z,13.33
2019-03-23T01:53:03.221Z,13.33
2019-03-23T01:54:03.290Z,14.48
2019-03-23T01:55:03.000Z,13.56
2019-03-23T01:56:02.754Z,13.17
2019-03-23T01:57:02.221Z,13.69
2019-03-23T01:58:03.461Z,14.39
2019-03-23T01:59:03.057Z,13.63
2019-03-23T02:00:02.991Z,15.43
2019-03-23T02:01:03.525Z,13.95
2019-03-23T02:02:03.230Z,13.95
2019-03-23T02:03:03.375Z,15.28
2019-03-23T02:04:03.369Z,14.76
2019-03-23T02:05:03.604Z,14.07
2019-03-23T02:06:02.885Z,13.96
2019-03-23T02:07:14.196Z,13.43
2019-03-23T02:08:03.148Z,13.07
2019-03-23T02:09:03.270Z,13.35
2019-03-23T02:10:03.766Z,12.85
2019-03-23T02:11:03.207Z,12.36
2019-03-23T02:12:03.509Z,13.13
2019-03-23T02:13:03.386Z,12.64
2019-03-23T02:14:03.408Z,13.42
2019-03-23T02:15:03.705Z,13.28
2019-03-23T02:16:02.786Z,12.5
2019-03-23T02:17:02.996Z,13.29
2019-03-23T02:18:03.588Z,12.81
2019-03-23T02:19:03.473Z,12.81
2019-03-23T02:20:03.588Z,13.46
2019-03-23T02:21:03.240Z,12.46
2019-03-23T02:22:02.980Z,12.46
2019-03-23T02:23:03.572Z,13.23
2019-03-23T02:24:03.533Z,12.28
2019-03-23T02:25:03.655Z,12.28
2019-03-23T02:26:02.869Z,12.24
2019-03-23T02:27:03.790Z,12.85
2019-03-23T02:28:02.724Z,13.27
2019-03-23T02:29:02.981Z,12.69
2019-03-23T02:30:03.224Z,12.94
2019-03-23T02:31:03.560Z,12.99
2019-03-23T02:32:03.445Z,13.42
2019-03-23T02:33:03.385Z,12.79
2019-03-23T02:34:03.347Z,12.33
2019-03-23T02:35:02.944Z,12.33
2019-03-23T02:36:03.193Z,12.94
2019-03-23T02:37:03.370Z,12.94
2019-03-23T02:38:03.539Z,12.24
2019-03-23T02:39:03.069Z,12.49
2019-03-23T02:40:03.634Z,12.49
2019-03-23T02:41:03.474Z,13.76
2019-03-23T02:42:03.704Z,13.76
2019-03-23T02:43:02.917Z,13.48
2019-03-23T02:44:02.891Z,12.78
2019-03-23T02:45:03.843Z,12.78
2019-03-23T02:46:03.724Z,12.78
2019-03-23T02:47:03.415Z,12.52
2019-03-23T02:48:03.091Z,12.02
2019-03-23T02:49:02.941Z,12.02
2019-03-23T02:50:03.183Z,13.01
2019-03-23T02:51:03.148Z,13.87
2019-03-23T02:52:03.412Z,14.44
2019-03-23T02:53:03.404Z,14.66
2019-03-23T02:54:02.927Z,12.61
2019-03-23T02:55:04.081Z,13.57
2019-03-23T02:56:03.419Z,12.91
2019-03-23T02:57:02.836Z,12.41
2019-03-23T02:58:03.290Z,12.72
2019-03-23T02:59:03.148Z,14.47
2019-03-23T03:00:03.503Z,14.47
2019-03-23T03:01:03.522Z,13.04
2019-03-23T03:02:03.256Z,14.86
2019-03-23T03:03:03.481Z,14.69
2019-03-23T03:04:02.687Z,13.39
2019-03-23T03:05:03.832Z,13.39
2019-03-23T03:06:03.612Z,13.48
2019-03-23T03:07:03.097Z,13.48
2019-03-23T03:08:02.873Z,13.59
2019-03-23T03:09:02.772Z,13.24
2019-03-23T03:10:02.961Z,13.24
2019-03-23T03:11:03.172Z,13.24
2019-03-23T03:12:03.359Z,14.81
2019-03-23T03:13:03.754Z,12.98
2019-03-23T03:14:03.239Z,12.98
2019-03-23T03:15:03.123Z,14.08
2019-03-23T03:16:02.756Z,15.4
2019-03-23T03:17:03.576Z,13.21
2019-03-23T03:18:03.653Z,15.4
2019-03-23T03:19:02.859Z,15.16
2019-03-23T03:20:02.997Z,15.26
2019-03-23T03:21:02.868Z,15.25
2019-03-23T03:22:03.449Z,14.77
2019-03-23T03:23:02.876Z,15.24
2019-03-23T03:24:03.236Z,14.3
2019-03-23T03:25:02.605Z,13.56
2019-03-23T03:26:03.033Z,13.16
2019-03-23T03:27:03.448Z,13.76
2019-03-23T03:28:01.995Z,13.46
2019-03-23T03:29:03.114Z,13.13
2019-03-23T03:30:03.189Z,13.08
2019-03-23T03:31:03.291Z,13.11
2019-03-23T03:32:03.352Z,13.72
2019-03-23T03:33:03.167Z,13.09
2019-03-23T03:34:02.771Z,13.4
2019-03-23T03:35:02.712Z,12.82
2019-03-23T03:36:02.878Z,13.56
2019-03-23T03:37:03.222Z,14.06
2019-03-23T03:38:03.727Z,13.56
2019-03-23T03:39:03.450Z,12.95
2019-03-23T03:40:03.263Z,12.94
2019-03-23T03:41:02.784Z,13.87
2019-03-23T03:42:02.703Z,12.61
2019-03-23T03:43:03.434Z,14.59
2019-03-23T03:44:02.870Z,14.59
2019-03-23T03:45:02.871Z,13.02
2019-03-23T03:46:03.710Z,14.02
2019-03-23T03:47:03.415Z,13
2019-03-23T03:48:03.477Z,14.44
2019-03-23T03:49:13.052Z,14.71
2019-03-23T03:50:03.747Z,13.24
2019-03-23T03:51:03.148Z,14.3
2019-03-23T03:52:03.261Z,13.39
2019-03-23T03:53:03.344Z,13.41
2019-03-23T03:54:04.103Z,13.09
2019-03-23T03:55:03.980Z,13.29
2019-03-23T03:56:03.511Z,13.29
2019-03-23T03:57:03.095Z,13.55
2019-03-23T03:58:03.490Z,13.55
2019-03-23T03:59:03.182Z,14.69
2019-03-23T04:00:03.390Z,13.45
2019-03-23T04:01:02.879Z,13.45
2019-03-23T04:02:03.456Z,13.79
2019-03-23T04:03:03.331Z,15.09
2019-03-23T04:04:03.414Z,14.58
2019-03-23T04:05:05.157Z,14.42
2019-03-23T04:06:03.452Z,13.85
2019-03-23T04:07:03.385Z,14.24
2019-03-23T04:08:12.165Z,15.92
2019-03-23T04:09:03.205Z,14.87
2019-03-23T04:10:03.063Z,14.55
2019-03-23T04:11:03.590Z,14.7
2019-03-23T04:12:02.828Z,13.88
2019-03-23T04:13:02.902Z,15.24
2019-03-23T04:14:02.608Z,14.66
2019-03-23T04:15:03.275Z,14.16
2019-03-23T04:16:03.018Z,13.51
2019-03-23T04:17:02.666Z,13.51
2019-03-23T04:18:02.902Z,13.9
2019-03-23T04:19:04.196Z,13.51
2019-03-23T04:20:03.720Z,13.05
2019-03-23T04:21:02.983Z,15.48
2019-03-23T04:22:02.897Z,15.02
2019-03-23T04:23:03.549Z,13.15
2019-03-23T04:24:03.087Z,13.48
2019-03-23T04:25:03.133Z,13.83
2019-03-23T04:26:03.144Z,14.24
2019-03-23T04:27:03.085Z,13.59
2019-03-23T04:28:03.054Z,13.61
2019-03-23T04:29:03.346Z,14.28
2019-03-23T04:30:03.430Z,14.08
2019-03-23T04:31:03.363Z,15.58
2019-03-23T04:32:02.930Z,14.1
2019-03-23T04:33:03.689Z,13.91
2019-03-23T04:34:03.638Z,14.21
2019-03-23T04:35:03.752Z,15.19
2019-03-23T04:36:03.374Z,14.36
2019-03-23T04:37:03.262Z,14.72
2019-03-23T04:38:03.056Z,14.29
2019-03-23T04:39:02.986Z,14.29
2019-03-23T04:40:03.048Z,13.87
2019-03-23T04:41:03.509Z,15.59
2019-03-23T04:42:02.947Z,14.74
2019-03-23T04:43:03.595Z,15.04
2019-03-23T04:44:06.407Z,15.04
2019-03-23T04:45:03.612Z,14.86
2019-03-23T04:46:02.968Z,14.86
2019-03-23T04:47:02.934Z,15.71
2019-03-23T04:48:03.572Z,15.69
2019-03-23T04:49:04.207Z,15.69
2019-03-23T04:50:03.575Z,15.09
2019-03-23T04:51:03.454Z,16.06
2019-03-23T04:52:02.978Z,16.06
2019-03-23T04:53:04.192Z,15.69
2019-03-23T04:54:03.059Z,15.16
2019-03-23T04:55:04.083Z,15.32
2019-03-23T04:56:04.576Z,15.32
2019-03-23T04:57:02.958Z,14.99
2019-03-23T04:58:03.389Z,16.59
2019-03-23T04:59:03.379Z,15.22
2019-03-23T05:00:02.895Z,15.66
2019-03-23T05:01:04.518Z,15.91
2019-03-23T05:02:03.375Z,14.84
2019-03-23T05:03:03.762Z,15.12
2019-03-23T05:04:03.356Z,15.44
2019-03-23T05:05:03.558Z,16.94
2019-03-23T05:06:02.864Z,14.05
2019-03-23T05:07:03.177Z,16.2
2019-03-23T05:08:03.380Z,16.45
2019-03-23T05:09:02.959Z,18.08
2019-03-23T05:10:03.835Z,17.92
2019-03-23T05:11:03.482Z,17.32
2019-03-23T05:12:03.658Z,16.98
2019-03-23T05:13:02.984Z,17.88
2019-03-23T05:14:04.146Z,17.54
2019-03-23T05:15:03.318Z,16.99
2019-03-23T05:16:03.002Z,19.04
2019-03-23T05:17:03.020Z,18.12
2019-03-23T05:18:03.737Z,17.76
2019-03-23T05:19:03.556Z,18.29
2019-03-23T05:20:02.943Z,17.35
2019-03-23T05:21:04.373Z,19.29
2019-03-23T05:22:02.242Z,17.12
2019-03-23T05:23:03.209Z,18.19
2019-03-23T05:24:03.601Z,16.94
2019-03-23T05:25:03.880Z,17.12
2019-03-23T05:26:03.451Z,16.32
2019-03-23T05:27:03.805Z,15.45
2019-03-23T05:28:02.854Z,15.89
2019-03-23T05:29:03.294Z,17.53
2019-03-23T05:30:03.278Z,17.65
2019-03-23T05:31:03.369Z,17.21
2019-03-23T05:32:03.200Z,16.51
2019-03-23T05:33:03.463Z,16.54
2019-03-23T05:34:06.981Z,15.94
2019-03-23T05:35:03.540Z,15.94
2019-03-23T05:36:03.152Z,16.18
2019-03-23T05:37:03.138Z,16.18
2019-03-23T05:38:03.508Z,16.75
2019-03-23T05:39:03.203Z,15.6
2019-03-23T05:40:03.114Z,16.58
2019-03-23T05:41:03.698Z,16.4
2019-03-23T05:42:03.449Z,16.19
2019-03-23T05:43:03.425Z,17.18
2019-03-23T05:44:03.655Z,16.76
2019-03-23T05:45:03.698Z,18.05
2019-03-23T05:46:03.551Z,17.1
2019-03-23T05:47:03.022Z,16.76
2019-03-23T05:48:03.481Z,18.86
2019-03-23T05:49:03.744Z,18.54
2019-03-23T05:50:03.809Z,17.74
2019-03-23T05:51:03.850Z,17.73
2019-03-23T05:52:02.402Z,17.48
2019-03-23T05:53:03.239Z,19.37
2019-03-23T05:54:03.728Z,18.95
2019-03-23T05:55:03.272Z,17.94
2019-03-23T05:56:03.397Z,18.36
2019-03-23T05:57:03.767Z,18.31
2019-03-23T05:58:03.718Z,18.86
2019-03-23T05:59:03.485Z,18.61
2019-03-23T06:00:03.127Z,17.98
2019-03-23T06:01:03.390Z,18.71
2019-03-23T06:02:03.432Z,17.94
2019-03-23T06:03:03.510Z,18.06
2019-03-23T06:04:03.127Z,21.05
2019-03-23T06:05:02.951Z,19.59
2019-03-23T06:06:03.307Z,19.52
2019-03-23T06:07:03.213Z,18.86
2019-03-23T06:08:03.440Z,19.26
2019-03-23T06:09:02.877Z,18.48
2019-03-23T06:10:03.261Z,17.69
2019-03-23T06:11:03.454Z,19.21
2019-03-23T06:12:03.332Z,19.76
2019-03-23T06:13:03.341Z,18.61
2019-03-23T06:14:03.397Z,18.71
2019-03-23T06:15:02.820Z,18.44
2019-03-23T06:16:03.025Z,17.58
2019-03-23T06:17:02.710Z,19.34
2019-03-23T06:18:03.536Z,18.95
2019-03-23T06:19:02.911Z,18.83
2019-03-23T06:20:04.873Z,18.96
2019-03-23T06:21:03.423Z,17.95
2019-03-23T06:22:02.684Z,18.84
2019-03-23T06:23:03.596Z,18.02
2019-03-23T06:24:03.059Z,17.89
2019-03-23T06:25:02.835Z,19.46
2019-03-23T06:26:06.407Z,19.46
2019-03-23T06:27:03.211Z,18.39
2019-03-23T06:28:03.360Z,17.86
2019-03-23T06:29:03.300Z,17.86
2019-03-23T06:30:02.988Z,17.72
2019-03-23T06:31:03.445Z,17.34
2019-03-23T06:32:02.876Z,17.34
2019-03-23T06:33:03.165Z,18.83
2019-03-23T06:34:03.223Z,17.85
2019-03-23T06:35:03.087Z,17.47
2019-03-23T06:36:03.442Z,17.13
2019-03-23T06:37:03.176Z,17.2
2019-03-23T06:38:03.203Z,16.57
2019-03-23T06:39:05.973Z,17.28
2019-03-23T06:40:03.562Z,17.1
2019-03-23T06:41:03.548Z,17.1
2019-03-23T06:42:03.724Z,16.51
2019-03-23T06:43:02.795Z,17.72
2019-03-23T06:44:02.903Z,16.66
2019-03-23T06:45:03.261Z,17.18
2019-03-23T06:46:02.999Z,17.18
2019-03-23T06:47:03.561Z,16.65
2019-03-23T06:48:03.554Z,15.74
2019-03-23T06:49:03.399Z,16.82
2019-03-23T06:50:03.872Z,16.82
2019-03-23T06:51:03.509Z,16.75
2019-03-23T06:52:04.511Z,16.25
2019-03-23T06:53:03.531Z,16.25
2019-03-23T06:54:03.667Z,16.7
2019-03-23T06:55:03.489Z,17.71
2019-03-23T06:56:03.763Z,17.98
2019-03-23T06:57:02.753Z,18.16
2019-03-23T06:58:03.575Z,18.16
2019-03-23T06:59:03.155Z,15.28
2019-03-23T07:00:03.362Z,16.91
2019-03-23T07:01:03.450Z,15.19
2019-03-23T07:02:03.608Z,15.08
2019-03-23T07:03:03.116Z,15.58
2019-03-23T07:04:02.766Z,15.81
2019-03-23T07:05:03.643Z,15.84
2019-03-23T07:06:03.253Z,15.01
2019-03-23T07:07:03.315Z,15.04
2019-03-23T07:08:02.753Z,15.04
2019-03-23T07:09:03.669Z,14.84
2019-03-23T07:10:03.350Z,14.84
2019-03-23T07:11:03.708Z,15.18
2019-03-23T07:12:02.737Z,14.84
2019-03-23T07:13:02.908Z,14.84
2019-03-23T07:14:03.523Z,13.91
2019-03-23T07:15:03.548Z,13.79
2019-03-23T07:16:03.014Z,14.72
2019-03-23T07:17:02.726Z,14.68
2019-03-23T07:18:03.332Z,15.19
2019-03-23T07:19:02.987Z,15.4
2019-03-23T07:20:03.798Z,14.89
2019-03-23T07:21:02.938Z,14.07
2019-03-23T07:22:02.868Z,13.43
2019-03-23T07:23:03.291Z,14.64
2019-03-23T07:24:02.629Z,13.95
2019-03-23T07:25:03.260Z,15.03
2019-03-23T07:26:03.275Z,14.65
2019-03-23T07:27:03.458Z,14.95
2019-03-23T07:28:03.662Z,14.02
2019-03-23T07:29:02.993Z,14.91
2019-03-23T07:30:03.260Z,14.62
2019-03-23T07:31:03.332Z,15.44
2019-03-23T07:32:06.378Z,15.36
2019-03-23T07:33:02.916Z,15.73
2019-03-23T07:34:02.958Z,15.78
2019-03-23T07:35:03.061Z,15.41
2019-03-23T07:36:03.650Z,15.22
2019-03-23T07:37:03.004Z,15.16
2019-03-23T07:38:03.031Z,14.91
2019-03-23T07:39:02.888Z,15.14
2019-03-23T07:40:03.830Z,15.08
2019-03-23T07:41:03.126Z,15.31
2019-03-23T07:42:02.807Z,14.99
2019-03-23T07:43:02.900Z,14.98
2019-03-23T07:44:02.808Z,15.87
2019-03-23T07:45:02.738Z,15.71
2019-03-23T07:46:02.554Z,14.05
2019-03-23T07:47:03.745Z,16.36
2019-03-23T07:48:03.058Z,16.54
2019-03-23T07:49:02.532Z,15.89
2019-03-23T07:50:03.805Z,16.78
2019-03-23T07:51:03.710Z,16.18
2019-03-23T07:52:02.791Z,16.21
2019-03-23T07:53:03.754Z,16.86
2019-03-23T07:54:03.522Z,14.82
2019-03-23T07:55:03.533Z,16.11
2019-03-23T07:56:03.032Z,16.25
2019-03-23T07:57:03.800Z,14.85
2019-03-23T07:58:03.625Z,14.85
2019-03-23T07:59:03.516Z,15.34
2019-03-23T08:00:03.643Z,15.44
2019-03-23T08:01:03.854Z,15.44
2019-03-23T08:02:03.620Z,16.05
2019-03-23T08:03:03.677Z,16.05
2019-03-23T08:04:03.635Z,16.24
2019-03-23T08:05:03.897Z,15.49
2019-03-23T08:06:03.743Z,16
2019-03-23T08:07:03.625Z,15.27
2019-03-23T08:08:03.824Z,15.44
2019-03-23T08:09:02.857Z,15.96
2019-03-23T08:10:02.728Z,16.33
2019-03-23T08:11:03.397Z,16.22
2019-03-23T08:12:03.697Z,16.14
2019-03-23T08:13:03.243Z,16.18
2019-03-23T08:14:03.426Z,17.35
2019-03-23T08:15:03.521Z,16.92
2019-03-23T08:16:03.764Z,17.05
2019-03-23T08:17:03.609Z,16.55
2019-03-23T08:18:03.575Z,16.65
2019-03-23T08:19:03.596Z,17.46
2019-03-23T08:20:03.835Z,16.56
2019-03-23T08:21:03.331Z,16.65
2019-03-23T08:22:03.453Z,16.73
2019-03-23T08:23:03.299Z,16.71
2019-03-23T08:24:03.320Z,16.88
2019-03-23T08:25:03.389Z,16.61
2019-03-23T08:26:03.187Z,17.8
2019-03-23T08:27:03.506Z,17.66
2019-03-23T08:28:03.336Z,17.97
2019-03-23T08:29:03.431Z,18.48
2019-03-23T08:30:03.217Z,19.52
2019-03-23T08:31:03.415Z,17.61
2019-03-23T08:32:03.410Z,18.96
2019-03-23T08:33:03.452Z,17.99
2019-03-23T08:34:03.435Z,18.19
2019-03-23T08:35:03.135Z,17.21
2019-03-23T08:36:03.274Z,18.31
2019-03-23T08:37:03.229Z,17.94
2019-03-23T08:38:02.929Z,18.89
2019-03-23T08:39:03.351Z,19.49
2019-03-23T08:40:03.485Z,18.65
2019-03-23T08:41:03.026Z,18.36
2019-03-23T08:42:03.343Z,18.25
2019-03-23T08:43:03.050Z,17.74
2019-03-23T08:44:03.426Z,19.51
2019-03-23T08:45:02.986Z,19.41
2019-03-23T08:46:03.318Z,18.79
2019-03-23T08:47:03.310Z,19.18
2019-03-23T08:48:03.113Z,19.3
2019-03-23T08:49:03.096Z,18.72
2019-03-23T08:50:03.438Z,19.44
2019-03-23T08:51:03.294Z,19.44
2019-03-23T08:52:02.866Z,19.38
2019-03-23T08:53:02.937Z,20.62
2019-03-23T08:54:02.908Z,20.62
2019-03-23T08:55:03.253Z,19.64
2019-03-23T08:56:02.904Z,19.91
2019-03-23T08:57:03.152Z,20.17
2019-03-23T08:58:03.108Z,19.04
2019-03-23T08:59:03.026Z,20.65
2019-03-23T09:00:03.128Z,19.68
2019-03-23T09:01:03.036Z,18.56
2019-03-23T09:02:03.163Z,18.8
2019-03-23T09:03:03.959Z,19.04
2019-03-23T09:04:03.055Z,19.94
2019-03-23T09:05:03.095Z,20.29
2019-03-23T09:06:03.212Z,20.85
2019-03-23T09:07:03.684Z,19.31
2019-03-23T09:08:02.759Z,19.44
2019-03-23T09:09:03.686Z,20.68
2019-03-23T09:10:03.009Z,20.75
2019-03-23T09:11:02.884Z,20.03
2019-03-23T09:12:02.832Z,20.24
2019-03-23T09:13:03.697Z,20.12
2019-03-23T09:14:02.636Z,19.62
2019-03-23T09:15:03.634Z,19.58
2019-03-23T09:16:03.668Z,19.3
2019-03-23T09:17:03.476Z,20.65
2019-03-23T09:18:02.925Z,20.51
2019-03-23T09:19:03.605Z,20.62
2019-03-23T09:20:03.545Z,20.54
2019-03-23T09:21:03.403Z,20.41
2019-03-23T09:22:03.725Z,20.81
2019-03-23T09:23:03.461Z,22.25
2019-03-23T09:24:03.686Z,21.01
2019-03-23T09:25:03.682Z,21.43
2019-03-23T09:26:03.496Z,20.86
2019-03-23T09:27:03.540Z,22.18
2019-03-23T09:28:03.465Z,21.13
2019-03-23T09:29:03.471Z,20.56
2019-03-23T09:30:03.471Z,21.56
2019-03-23T09:31:03.643Z,22.13
2019-03-23T09:32:03.460Z,20.34
2019-03-23T09:33:03.368Z,20.28
2019-03-23T09:34:03.518Z,20.91
2019-03-23T09:35:02.960Z,20.91
2019-03-23T09:36:03.729Z,20.99
2019-03-23T09:37:03.716Z,21.5
2019-03-23T09:38:03.778Z,21.5
2019-03-23T09:39:03.355Z,22.02
2019-03-23T09:40:11.535Z,21.24
2019-03-23T09:41:03.380Z,21.24
2019-03-23T09:42:03.642Z,22.29
2019-03-23T09:43:03.994Z,21.35
2019-03-23T09:44:03.509Z,21.77
2019-03-23T09:45:03.590Z,21.72
2019-03-23T09:46:03.358Z,21.76
2019-03-23T09:47:03.279Z,22.21
2019-03-23T09:48:03.464Z,21.56
2019-03-23T09:49:03.458Z,21.79
2019-03-23T09:50:03.399Z,22.59
2019-03-23T09:51:03.380Z,21.94
2019-03-23T09:52:03.320Z,22.31
2019-03-23T09:53:03.427Z,20.54
2019-03-23T09:54:03.262Z,22.55
2019-03-23T09:55:03.664Z,21.91
2019-03-23T09:56:03.490Z,22.27
2019-03-23T09:57:03.220Z,23.92
2019-03-23T09:58:03.362Z,22.21
2019-03-23T09:59:03.158Z,22.15
2019-03-23T10:00:03.358Z,22.51
2019-03-23T10:01:03.141Z,23.07
2019-03-23T10:02:03.258Z,23.23
2019-03-23T10:03:03.543Z,23.47
2019-03-23T10:04:02.978Z,24.04
2019-03-23T10:05:03.425Z,22.82
2019-03-23T10:06:03.292Z,23.61
2019-03-23T10:07:03.145Z,23.78
2019-03-23T10:08:03.285Z,24.45
2019-03-23T10:09:03.304Z,22.89
2019-03-23T10:10:03.082Z,22.7
2019-03-23T10:11:02.921Z,23.95
2019-03-23T10:12:03.301Z,23.32
2019-03-23T10:13:02.989Z,23.52
2019-03-23T10:14:03.340Z,23.99
2019-03-23T10:15:03.011Z,23.96
2019-03-23T10:16:03.017Z,25.98
2019-03-23T10:17:03.218Z,23.38
2019-03-23T10:18:03.011Z,24.2
2019-03-23T10:19:03.513Z,24.2
2019-03-23T10:20:03.294Z,23.92
2019-03-23T10:21:03.569Z,23.92
2019-03-23T10:22:03.227Z,25.25
2019-03-23T10:23:03.446Z,25.32
2019-03-23T10:24:03.256Z,25.32
2019-03-23T10:25:03.634Z,25.28
2019-03-23T10:26:03.343Z,24.88
2019-03-23T10:27:03.517Z,23.92
2019-03-23T10:28:03.526Z,24.93
2019-03-23T10:29:03.041Z,24.25
2019-03-23T10:30:03.477Z,24.41
2019-03-23T10:31:03.300Z,24.58
2019-03-23T10:32:03.207Z,24.41
2019-03-23T10:33:03.015Z,23.79
2019-03-23T10:34:03.457Z,25.52
2019-03-23T10:35:03.167Z,23.87
2019-03-23T10:36:03.375Z,24.46
2019-03-23T10:37:03.147Z,25.88
2019-03-23T10:38:03.069Z,24.52
2019-03-23T10:39:02.997Z,26.35
2019-03-23T10:40:03.441Z,24.68
2019-03-23T10:41:03.321Z,24.98
2019-03-23T10:42:03.164Z,23.92
2019-03-23T10:43:03.209Z,24.91
2019-03-23T10:44:03.311Z,23.54
2019-03-23T10:45:02.742Z,24.94
2019-03-23T10:46:02.743Z,25.62
2019-03-23T10:47:03.646Z,24.67
2019-03-23T10:48:02.857Z,24.49
2019-03-23T10:49:03.619Z,25.31
2019-03-23T10:50:03.937Z,26.31
2019-03-23T10:51:03.704Z,24.02
2019-03-23T10:52:03.697Z,25.56
2019-03-23T10:53:03.669Z,24.92
2019-03-23T10:54:04.255Z,26
2019-03-23T10:55:02.841Z,25.99
2019-03-23T10:56:03.411Z,26.59
2019-03-23T10:57:03.628Z,25.58
2019-03-23T10:58:03.586Z,26.18
2019-03-23T10:59:03.435Z,26.46
2019-03-23T11:00:03.819Z,25.99
2019-03-23T11:01:03.718Z,26.19
2019-03-23T11:02:02.760Z,26.6
2019-03-23T11:03:03.398Z,24.16
2019-03-23T11:04:03.775Z,24.29
2019-03-23T11:05:03.697Z,25.82
2019-03-23T11:06:03.692Z,26.68
2019-03-23T11:07:03.493Z,25.89
2019-03-23T11:08:02.696Z,25.43
2019-03-23T11:09:03.469Z,25.88
2019-03-23T11:10:03.475Z,24.79
2019-03-23T11:11:03.642Z,25.74
2019-03-23T11:12:03.568Z,25.74
2019-03-23T11:13:03.625Z,24.65
2019-03-23T11:14:02.915Z,25.25
2019-03-23T11:15:03.679Z,25.25
2019-03-23T11:16:03.376Z,24.88
2019-03-23T11:17:03.198Z,24.88
2019-03-23T11:18:03.586Z,25.43
2019-03-23T11:19:13.471Z,24.4
2019-03-23T11:20:03.235Z,26.48
2019-03-23T11:21:03.474Z,26.99
2019-03-23T11:22:03.070Z,26.49
2019-03-23T11:23:03.694Z,27.71
2019-03-23T11:24:02.691Z,25.67
2019-03-23T11:25:02.844Z,25.47
2019-03-23T11:26:03.568Z,26.24
2019-03-23T11:27:03.682Z,26.69
2019-03-23T11:28:03.666Z,24.59
2019-03-23T11:29:03.534Z,27.97
2019-03-23T11:30:03.559Z,27.34
2019-03-23T11:31:03.704Z,25.46
2019-03-23T11:32:03.498Z,25.01
2019-03-23T11:33:03.524Z,25.66
2019-03-23T11:34:03.437Z,25.71
2019-03-23T11:35:03.831Z,26.44
2019-03-23T11:36:02.950Z,26.31
2019-03-23T11:37:03.820Z,27.06
2019-03-23T11:38:03.697Z,27.54
2019-03-23T11:39:03.607Z,26.38
2019-03-23T11:40:03.733Z,26.7
2019-03-23T11:41:03.461Z,25.39
2019-03-23T11:42:03.680Z,27.53
2019-03-23T11:43:03.676Z,26.29
2019-03-23T11:44:03.205Z,27.33
2019-03-23T11:45:03.610Z,28.22
2019-03-23T11:46:03.322Z,26.79
2019-03-23T11:47:03.652Z,26.52
2019-03-23T11:48:03.368Z,25.88
2019-03-23T11:49:03.783Z,26.94
2019-03-23T11:50:03.342Z,25.51
2019-03-23T11:51:03.509Z,27.46
2019-03-23T11:52:03.446Z,26.58
2019-03-23T11:53:03.681Z,27.21
2019-03-23T11:54:03.571Z,26.67
2019-03-23T11:55:03.410Z,24.95
2019-03-23T11:56:03.593Z,24.95
2019-03-23T11:57:03.631Z,27.06
2019-03-23T11:58:02.929Z,26.85
2019-03-23T11:59:03.810Z,26.85
2019-03-23T12:00:02.770Z,26.6
2019-03-23T12:01:02.774Z,27.05
2019-03-23T12:02:03.296Z,27.21
2019-03-23T12:03:03.551Z,27.98
2019-03-23T12:04:03.609Z,26.76
2019-03-23T12:05:03.456Z,27.41
2019-03-23T12:06:03.474Z,27.49
2019-03-23T12:07:03.570Z,27.42
2019-03-23T12:08:02.999Z,26.42
2019-03-23T12:09:03.474Z,23.97
2019-03-23T12:10:03.106Z,26.66
2019-03-23T12:11:03.698Z,27.78
2019-03-23T12:12:03.609Z,25.97
2019-03-23T12:13:03.468Z,25.48
2019-03-23T12:14:03.019Z,26.87
2019-03-23T12:15:03.628Z,25.25
2019-03-23T12:16:03.246Z,26.01
2019-03-23T12:17:03.332Z,25.39
2019-03-23T12:18:03.681Z,26.79
2019-03-23T12:19:03.432Z,24.52
2019-03-23T12:20:03.636Z,24.72
2019-03-23T12:21:03.448Z,24.72
2019-03-23T12:22:03.300Z,25.22
2019-03-23T12:23:03.513Z,24.74
2019-03-23T12:24:03.310Z,24.85
2019-03-23T12:25:03.687Z,24.56
2019-03-23T12:26:03.592Z,26.28
2019-03-23T12:27:03.692Z,25.11
2019-03-23T12:28:03.573Z,24.6
2019-03-23T12:29:03.276Z,26.6
2019-03-23T12:30:07.842Z,25.28
2019-03-23T12:31:03.239Z,24.45
2019-03-23T12:32:03.483Z,25.75
2019-03-23T12:33:03.549Z,24.95
2019-03-23T12:34:03.724Z,25.73
2019-03-23T12:35:03.596Z,27.58
2019-03-23T12:36:03.397Z,25.62
2019-03-23T12:37:03.410Z,29.7
2019-03-23T12:38:03.180Z,29.7
2019-03-23T12:39:03.519Z,26.98
2019-03-23T12:40:03.440Z,26.14
2019-03-23T12:41:22.686Z,26.14
2019-03-23T12:42:03.218Z,26.82
2019-03-23T12:43:03.239Z,27.85
2019-03-23T12:44:03.319Z,27.85
2019-03-23T12:45:03.631Z,27.41
2019-03-23T12:46:03.150Z,27.66
2019-03-23T12:47:03.674Z,27.34
2019-03-23T12:48:03.127Z,28.48
2019-03-23T12:49:03.706Z,27.11
2019-03-23T12:50:03.331Z,27.77
2019-03-23T12:51:03.779Z,28.26
2019-03-23T12:52:03.666Z,28.19
2019-03-23T12:53:03.585Z,26.04
2019-03-23T12:54:02.831Z,28.51